sensor_id;sensor_type;location;lat;lon;timestamp;P1;durP1;ratioP1;P2;durP2;ratioP2
45792;SDS011;31495;42.740;22.908;2023-06-10T00:00:33;6.70;;;3.55;;
45792;SDS011;31495;42.740;22.908;2023-06-10T00:01:33;4.57;;;3.53;;
45792;SDS011;31495;42.740;22.908;2023-06-10T00:02:35;7.20;;;3.58;;
45792;SDS011;31495;42.740;22.908;2023-06-10T00:03:35;6.90;;;3.60;;
45792;SDS011;31495;42.740;22.908;2023-06-10T00:04:35;6.22;;;3.65;;
45792;SDS011;31495;42.740;22.908;2023-06-10T00:05:35;5.85;;;3.70;;
45792;SDS011;31495;42.740;22.908;2023-06-10T00:06:37;7.97;;;4.03;;
45792;SDS011;31495;42.740;22.908;2023-06-10T00:07:38;6.75;;;4.20;;
45792;SDS011;31495;42.740;22.908;2023-06-10T00:08:38;6.80;;;4.10;;
45792;SDS011;31495;42.740;22.908;2023-06-10T00:09:38;5.65;;;3.53;;
45792;SDS011;31495;42.740;22.908;2023-06-10T00:10:38;5.05;;;4.07;;
45792;SDS011;31495;42.740;22.908;2023-06-10T00:11:37;4.70;;;3.42;;
45792;SDS011;31495;42.740;22.908;2023-06-10T00:12:38;7.85;;;3.53;;
45792;SDS011;31495;42.740;22.908;2023-06-10T00:13:37;5.88;;;3.92;;
45792;SDS011;31495;42.740;22.908;2023-06-10T00:14:38;5.13;;;3.53;;
45792;SDS011;31495;42.740;22.908;2023-06-10T00:15:39;5.32;;;3.95;;
45792;SDS011;31495;42.740;22.908;2023-06-10T00:16:38;8.52;;;3.83;;
45792;SDS011;31495;42.740;22.908;2023-06-10T00:17:37;10.45;;;4.10;;
45792;SDS011;31495;42.740;22.908;2023-06-10T00:18:38;6.75;;;3.22;;
45792;SDS011;31495;42.740;22.908;2023-06-10T00:19:37;6.38;;;3.33;;
45792;SDS011;31495;42.740;22.908;2023-06-10T00:20:40;7.10;;;4.03;;
45792;SDS011;31495;42.740;22.908;2023-06-10T00:21:41;6.15;;;3.85;;
45792;SDS011;31495;42.740;22.908;2023-06-10T00:22:43;13.60;;;3.90;;
45792;SDS011;31495;42.740;22.908;2023-06-10T00:23:44;7.00;;;3.25;;
45792;SDS011;31495;42.740;22.908;2023-06-10T00:24:44;7.25;;;4.65;;
45792;SDS011;31495;42.740;22.908;2023-06-10T00:25:43;7.70;;;4.03;;
45792;SDS011;31495;42.740;22.908;2023-06-10T00:26:43;4.90;;;3.72;;
45792;SDS011;31495;42.740;22.908;2023-06-10T00:27:42;6.00;;;3.70;;
45792;SDS011;31495;42.740;22.908;2023-06-10T00:28:42;5.82;;;3.63;;
45792;SDS011;31495;42.740;22.908;2023-06-10T00:29:42;8.27;;;3.58;;
45792;SDS011;31495;42.740;22.908;2023-06-10T00:30:41;6.35;;;3.53;;
45792;SDS011;31495;42.740;22.908;2023-06-10T00:31:41;8.60;;;4.00;;
45792;SDS011;31495;42.740;22.908;2023-06-10T00:32:41;5.82;;;4.18;;
45792;SDS011;31495;42.740;22.908;2023-06-10T00:33:40;6.07;;;4.10;;
45792;SDS011;31495;42.740;22.908;2023-06-10T00:34:39;8.07;;;4.18;;
45792;SDS011;31495;42.740;22.908;2023-06-10T00:35:39;6.60;;;4.28;;
45792;SDS011;31495;42.740;22.908;2023-06-10T00:36:39;6.35;;;3.55;;
45792;SDS011;31495;42.740;22.908;2023-06-10T00:37:39;4.03;;;2.80;;
45792;SDS011;31495;42.740;22.908;2023-06-10T00:38:38;4.18;;;2.58;;
45792;SDS011;31495;42.740;22.908;2023-06-10T00:39:40;4.20;;;2.38;;
45792;SDS011;31495;42.740;22.908;2023-06-10T00:40:39;2.72;;;1.98;;
45792;SDS011;31495;42.740;22.908;2023-06-10T00:41:42;8.10;;;3.17;;
45792;SDS011;31495;42.740;22.908;2023-06-10T00:42:41;7.00;;;3.10;;
45792;SDS011;31495;42.740;22.908;2023-06-10T00:43:41;4.03;;;2.92;;
45792;SDS011;31495;42.740;22.908;2023-06-10T00:44:40;3.92;;;2.25;;
45792;SDS011;31495;42.740;22.908;2023-06-10T00:45:40;9.35;;;2.72;;
45792;SDS011;31495;42.740;22.908;2023-06-10T00:46:39;5.55;;;2.55;;
45792;SDS011;31495;42.740;22.908;2023-06-10T00:47:39;3.25;;;2.42;;
45792;SDS011;31495;42.740;22.908;2023-06-10T00:48:39;7.53;;;3.05;;
45792;SDS011;31495;42.740;22.908;2023-06-10T00:49:41;4.50;;;2.67;;
45792;SDS011;31495;42.740;22.908;2023-06-10T00:50:41;3.92;;;2.45;;
45792;SDS011;31495;42.740;22.908;2023-06-10T00:51:41;6.75;;;3.10;;
45792;SDS011;31495;42.740;22.908;2023-06-10T00:52:41;3.67;;;2.45;;
45792;SDS011;31495;42.740;22.908;2023-06-10T00:53:44;4.32;;;2.72;;
45792;SDS011;31495;42.740;22.908;2023-06-10T00:54:44;5.88;;;2.50;;
45792;SDS011;31495;42.740;22.908;2023-06-10T00:55:43;5.05;;;3.00;;
45792;SDS011;31495;42.740;22.908;2023-06-10T00:56:43;4.35;;;3.00;;
45792;SDS011;31495;42.740;22.908;2023-06-10T00:57:44;5.70;;;3.17;;
45792;SDS011;31495;42.740;22.908;2023-06-10T00:58:45;4.10;;;2.85;;
45792;SDS011;31495;42.740;22.908;2023-06-10T00:59:46;4.57;;;2.97;;
45792;SDS011;31495;42.740;22.908;2023-06-10T01:00:47;8.15;;;2.70;;
45792;SDS011;31495;42.740;22.908;2023-06-10T01:01:46;4.63;;;2.65;;
45792;SDS011;31495;42.740;22.908;2023-06-10T01:02:46;3.90;;;2.75;;
45792;SDS011;31495;42.740;22.908;2023-06-10T01:03:45;5.70;;;2.50;;
45792;SDS011;31495;42.740;22.908;2023-06-10T01:04:46;3.90;;;2.70;;
45792;SDS011;31495;42.740;22.908;2023-06-10T01:05:49;4.05;;;2.17;;
45792;SDS011;31495;42.740;22.908;2023-06-10T01:08:20;6.45;;;2.38;;
45792;SDS011;31495;42.740;22.908;2023-06-10T01:10:33;6.30;;;2.45;;
45792;SDS011;31495;42.740;22.908;2023-06-10T01:11:34;4.75;;;2.88;;
45792;SDS011;31495;42.740;22.908;2023-06-10T01:12:49;6.10;;;2.70;;
45792;SDS011;31495;42.740;22.908;2023-06-10T01:13:58;5.75;;;2.97;;
45792;SDS011;31495;42.740;22.908;2023-06-10T01:14:59;10.52;;;2.88;;
45792;SDS011;31495;42.740;22.908;2023-06-10T01:15:59;4.32;;;2.38;;
45792;SDS011;31495;42.740;22.908;2023-06-10T01:17:00;4.50;;;2.65;;
45792;SDS011;31495;42.740;22.908;2023-06-10T01:18:01;7.38;;;2.80;;
45792;SDS011;31495;42.740;22.908;2023-06-10T01:19:07;3.92;;;2.72;;
45792;SDS011;31495;42.740;22.908;2023-06-10T01:20:07;4.72;;;2.70;;
45792;SDS011;31495;42.740;22.908;2023-06-10T01:21:20;4.72;;;3.13;;
45792;SDS011;31495;42.740;22.908;2023-06-10T01:22:23;4.95;;;2.88;;
45792;SDS011;31495;42.740;22.908;2023-06-10T01:23:24;4.60;;;3.15;;
45792;SDS011;31495;42.740;22.908;2023-06-10T01:24:24;5.55;;;2.92;;
45792;SDS011;31495;42.740;22.908;2023-06-10T01:25:24;6.43;;;3.53;;
45792;SDS011;31495;42.740;22.908;2023-06-10T01:26:28;5.00;;;2.88;;
45792;SDS011;31495;42.740;22.908;2023-06-10T01:27:33;4.15;;;3.00;;
45792;SDS011;31495;42.740;22.908;2023-06-10T01:29:54;5.25;;;3.20;;
45792;SDS011;31495;42.740;22.908;2023-06-10T01:31:20;5.88;;;2.83;;
45792;SDS011;31495;42.740;22.908;2023-06-10T01:32:46;4.60;;;3.20;;
45792;SDS011;31495;42.740;22.908;2023-06-10T01:33:51;5.38;;;2.97;;
45792;SDS011;31495;42.740;22.908;2023-06-10T01:34:52;7.80;;;3.40;;
45792;SDS011;31495;42.740;22.908;2023-06-10T01:35:58;6.30;;;3.47;;
45792;SDS011;31495;42.740;22.908;2023-06-10T01:36:58;5.00;;;2.80;;
45792;SDS011;31495;42.740;22.908;2023-06-10T01:37:59;7.03;;;3.22;;
45792;SDS011;31495;42.740;22.908;2023-06-10T01:39:00;4.57;;;3.25;;
45792;SDS011;31495;42.740;22.908;2023-06-10T01:40:02;5.22;;;2.90;;
45792;SDS011;31495;42.740;22.908;2023-06-10T01:41:05;6.18;;;3.38;;
45792;SDS011;31495;42.740;22.908;2023-06-10T01:42:06;5.60;;;3.45;;
45792;SDS011;31495;42.740;22.908;2023-06-10T01:43:06;5.97;;;3.65;;
45792;SDS011;31495;42.740;22.908;2023-06-10T01:44:05;4.60;;;2.88;;
45792;SDS011;31495;42.740;22.908;2023-06-10T01:45:05;7.75;;;3.80;;
45792;SDS011;31495;42.740;22.908;2023-06-10T01:46:05;4.45;;;3.10;;
45792;SDS011;31495;42.740;22.908;2023-06-10T01:47:05;4.07;;;3.17;;
45792;SDS011;31495;42.740;22.908;2023-06-10T01:48:04;6.28;;;2.83;;
45792;SDS011;31495;42.740;22.908;2023-06-10T01:49:04;7.13;;;3.72;;
45792;SDS011;31495;42.740;22.908;2023-06-10T01:50:04;6.95;;;3.33;;
45792;SDS011;31495;42.740;22.908;2023-06-10T01:51:04;9.10;;;4.03;;
45792;SDS011;31495;42.740;22.908;2023-06-10T01:52:04;6.47;;;3.45;;
45792;SDS011;31495;42.740;22.908;2023-06-10T01:53:05;5.97;;;4.13;;
45792;SDS011;31495;42.740;22.908;2023-06-10T01:54:04;9.02;;;4.30;;
45792;SDS011;31495;42.740;22.908;2023-06-10T01:55:05;4.78;;;3.60;;
45792;SDS011;31495;42.740;22.908;2023-06-10T01:56:05;6.05;;;3.35;;
45792;SDS011;31495;42.740;22.908;2023-06-10T01:57:04;6.70;;;3.35;;
45792;SDS011;31495;42.740;22.908;2023-06-10T01:58:05;6.55;;;3.67;;
45792;SDS011;31495;42.740;22.908;2023-06-10T01:59:04;9.57;;;4.10;;
45792;SDS011;31495;42.740;22.908;2023-06-10T02:00:04;5.45;;;3.25;;
45792;SDS011;31495;42.740;22.908;2023-06-10T02:01:04;5.55;;;3.53;;
45792;SDS011;31495;42.740;22.908;2023-06-10T02:02:04;5.90;;;4.10;;
45792;SDS011;31495;42.740;22.908;2023-06-10T02:03:04;4.70;;;3.55;;
45792;SDS011;31495;42.740;22.908;2023-06-10T02:04:04;6.22;;;3.72;;
45792;SDS011;31495;42.740;22.908;2023-06-10T02:05:03;5.63;;;3.95;;
45792;SDS011;31495;42.740;22.908;2023-06-10T02:06:03;4.82;;;4.00;;
45792;SDS011;31495;42.740;22.908;2023-06-10T02:07:03;5.50;;;3.60;;
45792;SDS011;31495;42.740;22.908;2023-06-10T02:08:03;7.05;;;3.67;;
45792;SDS011;31495;42.740;22.908;2023-06-10T02:09:03;8.65;;;3.90;;
45792;SDS011;31495;42.740;22.908;2023-06-10T02:10:04;4.75;;;3.28;;
45792;SDS011;31495;42.740;22.908;2023-06-10T02:11:04;6.13;;;3.40;;
45792;SDS011;31495;42.740;22.908;2023-06-10T02:12:04;6.25;;;3.72;;
45792;SDS011;31495;42.740;22.908;2023-06-10T02:13:05;6.30;;;3.88;;
45792;SDS011;31495;42.740;22.908;2023-06-10T02:14:04;4.43;;;3.03;;
45792;SDS011;31495;42.740;22.908;2023-06-10T02:15:04;7.00;;;4.07;;
45792;SDS011;31495;42.740;22.908;2023-06-10T02:16:04;5.65;;;3.70;;
45792;SDS011;31495;42.740;22.908;2023-06-10T02:17:05;5.25;;;4.00;;
45792;SDS011;31495;42.740;22.908;2023-06-10T02:18:04;6.30;;;3.95;;
45792;SDS011;31495;42.740;22.908;2023-06-10T02:19:03;9.02;;;3.70;;
45792;SDS011;31495;42.740;22.908;2023-06-10T02:20:05;6.60;;;4.03;;
45792;SDS011;31495;42.740;22.908;2023-06-10T02:21:06;6.28;;;4.47;;
45792;SDS011;31495;42.740;22.908;2023-06-10T02:22:06;7.25;;;4.07;;
45792;SDS011;31495;42.740;22.908;2023-06-10T02:23:05;6.13;;;3.72;;
45792;SDS011;31495;42.740;22.908;2023-06-10T02:24:05;4.72;;;3.25;;
45792;SDS011;31495;42.740;22.908;2023-06-10T02:25:04;6.50;;;3.88;;
45792;SDS011;31495;42.740;22.908;2023-06-10T02:26:04;5.15;;;3.17;;
45792;SDS011;31495;42.740;22.908;2023-06-10T02:27:04;6.63;;;3.83;;
45792;SDS011;31495;42.740;22.908;2023-06-10T02:28:05;5.38;;;3.38;;
45792;SDS011;31495;42.740;22.908;2023-06-10T02:29:05;9.70;;;3.58;;
45792;SDS011;31495;42.740;22.908;2023-06-10T02:30:04;9.05;;;4.30;;
45792;SDS011;31495;42.740;22.908;2023-06-10T02:31:04;5.50;;;3.92;;
45792;SDS011;31495;42.740;22.908;2023-06-10T02:32:04;5.22;;;3.65;;
45792;SDS011;31495;42.740;22.908;2023-06-10T02:33:04;5.05;;;3.45;;
45792;SDS011;31495;42.740;22.908;2023-06-10T02:34:04;9.57;;;3.35;;
45792;SDS011;31495;42.740;22.908;2023-06-10T02:35:03;7.10;;;3.97;;
45792;SDS011;31495;42.740;22.908;2023-06-10T02:36:04;4.78;;;3.28;;
45792;SDS011;31495;42.740;22.908;2023-06-10T02:37:04;4.88;;;3.13;;
45792;SDS011;31495;42.740;22.908;2023-06-10T02:38:04;8.65;;;2.78;;
45792;SDS011;31495;42.740;22.908;2023-06-10T02:39:03;5.22;;;3.33;;
45792;SDS011;31495;42.740;22.908;2023-06-10T02:40:03;5.35;;;3.55;;
45792;SDS011;31495;42.740;22.908;2023-06-10T02:41:04;4.95;;;3.35;;
45792;SDS011;31495;42.740;22.908;2023-06-10T02:42:03;5.43;;;3.08;;
45792;SDS011;31495;42.740;22.908;2023-06-10T02:43:04;5.40;;;3.28;;
45792;SDS011;31495;42.740;22.908;2023-06-10T02:44:04;5.18;;;3.42;;
45792;SDS011;31495;42.740;22.908;2023-06-10T02:45:03;5.80;;;3.53;;
45792;SDS011;31495;42.740;22.908;2023-06-10T02:46:03;5.32;;;3.00;;
45792;SDS011;31495;42.740;22.908;2023-06-10T02:47:02;7.85;;;3.90;;
45792;SDS011;31495;42.740;22.908;2023-06-10T02:48:02;3.88;;;3.15;;
45792;SDS011;31495;42.740;22.908;2023-06-10T02:49:02;5.53;;;3.33;;
45792;SDS011;31495;42.740;22.908;2023-06-10T02:50:02;5.50;;;4.00;;
45792;SDS011;31495;42.740;22.908;2023-06-10T02:51:03;5.45;;;3.28;;
45792;SDS011;31495;42.740;22.908;2023-06-10T02:52:02;6.25;;;3.33;;
45792;SDS011;31495;42.740;22.908;2023-06-10T02:53:02;4.20;;;2.92;;
45792;SDS011;31495;42.740;22.908;2023-06-10T02:54:01;4.53;;;3.30;;
45792;SDS011;31495;42.740;22.908;2023-06-10T02:55:01;4.38;;;3.03;;
45792;SDS011;31495;42.740;22.908;2023-06-10T02:56:01;6.40;;;3.47;;
45792;SDS011;31495;42.740;22.908;2023-06-10T02:57:01;6.80;;;3.80;;
45792;SDS011;31495;42.740;22.908;2023-06-10T02:58:00;7.15;;;3.92;;
45792;SDS011;31495;42.740;22.908;2023-06-10T02:59:00;5.45;;;3.55;;
45792;SDS011;31495;42.740;22.908;2023-06-10T02:59:59;9.95;;;3.38;;
45792;SDS011;31495;42.740;22.908;2023-06-10T03:01:00;6.35;;;3.08;;
45792;SDS011;31495;42.740;22.908;2023-06-10T03:02:00;8.60;;;4.15;;
45792;SDS011;31495;42.740;22.908;2023-06-10T03:03:00;6.43;;;3.58;;
45792;SDS011;31495;42.740;22.908;2023-06-10T03:04:05;5.05;;;3.40;;
45792;SDS011;31495;42.740;22.908;2023-06-10T03:05:05;6.35;;;3.63;;
45792;SDS011;31495;42.740;22.908;2023-06-10T03:06:11;5.50;;;3.70;;
45792;SDS011;31495;42.740;22.908;2023-06-10T03:07:11;4.55;;;3.80;;
45792;SDS011;31495;42.740;22.908;2023-06-10T03:08:11;4.88;;;3.80;;
45792;SDS011;31495;42.740;22.908;2023-06-10T03:09:11;8.32;;;3.63;;
45792;SDS011;31495;42.740;22.908;2023-06-10T03:10:10;7.50;;;3.65;;
45792;SDS011;31495;42.740;22.908;2023-06-10T03:11:10;5.53;;;3.75;;
45792;SDS011;31495;42.740;22.908;2023-06-10T03:12:09;7.80;;;4.18;;
45792;SDS011;31495;42.740;22.908;2023-06-10T03:13:09;6.95;;;4.25;;
45792;SDS011;31495;42.740;22.908;2023-06-10T03:14:09;9.52;;;4.63;;
45792;SDS011;31495;42.740;22.908;2023-06-10T03:15:08;5.40;;;3.67;;
45792;SDS011;31495;42.740;22.908;2023-06-10T03:16:08;4.30;;;2.95;;
45792;SDS011;31495;42.740;22.908;2023-06-10T03:17:07;9.02;;;3.90;;
45792;SDS011;31495;42.740;22.908;2023-06-10T03:18:10;6.60;;;3.42;;
45792;SDS011;31495;42.740;22.908;2023-06-10T03:19:09;6.35;;;3.75;;
45792;SDS011;31495;42.740;22.908;2023-06-10T03:20:09;5.43;;;3.25;;
45792;SDS011;31495;42.740;22.908;2023-06-10T03:21:09;7.75;;;3.55;;
45792;SDS011;31495;42.740;22.908;2023-06-10T03:22:12;9.70;;;4.22;;
45792;SDS011;31495;42.740;22.908;2023-06-10T03:23:13;5.50;;;3.72;;
45792;SDS011;31495;42.740;22.908;2023-06-10T03:24:12;5.00;;;2.95;;
45792;SDS011;31495;42.740;22.908;2023-06-10T03:25:11;7.20;;;3.63;;
45792;SDS011;31495;42.740;22.908;2023-06-10T03:26:12;7.25;;;3.85;;
45792;SDS011;31495;42.740;22.908;2023-06-10T03:27:13;7.30;;;4.22;;
45792;SDS011;31495;42.740;22.908;2023-06-10T03:28:13;6.00;;;3.67;;
45792;SDS011;31495;42.740;22.908;2023-06-10T03:29:13;5.95;;;3.75;;
45792;SDS011;31495;42.740;22.908;2023-06-10T03:30:12;6.63;;;3.28;;
45792;SDS011;31495;42.740;22.908;2023-06-10T03:31:12;5.57;;;3.40;;
45792;SDS011;31495;42.740;22.908;2023-06-10T03:32:12;7.00;;;3.63;;
45792;SDS011;31495;42.740;22.908;2023-06-10T03:33:11;9.23;;;4.35;;
45792;SDS011;31495;42.740;22.908;2023-06-10T03:34:11;6.07;;;3.90;;
45792;SDS011;31495;42.740;22.908;2023-06-10T03:35:10;7.00;;;4.45;;
45792;SDS011;31495;42.740;22.908;2023-06-10T03:36:10;5.25;;;3.38;;
45792;SDS011;31495;42.740;22.908;2023-06-10T03:37:10;5.35;;;3.45;;
45792;SDS011;31495;42.740;22.908;2023-06-10T03:38:09;7.13;;;4.57;;
45792;SDS011;31495;42.740;22.908;2023-06-10T03:39:09;6.63;;;4.45;;
45792;SDS011;31495;42.740;22.908;2023-06-10T03:40:09;6.85;;;4.28;;
45792;SDS011;31495;42.740;22.908;2023-06-10T03:41:09;7.55;;;3.58;;
45792;SDS011;31495;42.740;22.908;2023-06-10T03:42:09;6.20;;;3.60;;
45792;SDS011;31495;42.740;22.908;2023-06-10T03:43:08;6.38;;;3.90;;
45792;SDS011;31495;42.740;22.908;2023-06-10T03:44:08;6.18;;;3.78;;
45792;SDS011;31495;42.740;22.908;2023-06-10T03:45:07;5.22;;;3.38;;
45792;SDS011;31495;42.740;22.908;2023-06-10T03:46:08;6.00;;;3.63;;
45792;SDS011;31495;42.740;22.908;2023-06-10T03:47:07;5.50;;;4.10;;
45792;SDS011;31495;42.740;22.908;2023-06-10T03:48:06;8.82;;;3.58;;
45792;SDS011;31495;42.740;22.908;2023-06-10T03:49:07;5.43;;;3.67;;
45792;SDS011;31495;42.740;22.908;2023-06-10T03:50:06;5.35;;;3.47;;
45792;SDS011;31495;42.740;22.908;2023-06-10T03:51:10;6.18;;;3.65;;
45792;SDS011;31495;42.740;22.908;2023-06-10T03:52:09;7.28;;;4.18;;
45792;SDS011;31495;42.740;22.908;2023-06-10T03:53:09;7.15;;;4.38;;
45792;SDS011;31495;42.740;22.908;2023-06-10T03:54:08;6.28;;;4.10;;
45792;SDS011;31495;42.740;22.908;2023-06-10T03:55:08;5.38;;;3.55;;
45792;SDS011;31495;42.740;22.908;2023-06-10T03:56:07;6.65;;;4.32;;
45792;SDS011;31495;42.740;22.908;2023-06-10T03:57:06;8.23;;;4.35;;
45792;SDS011;31495;42.740;22.908;2023-06-10T03:58:06;6.20;;;4.65;;
45792;SDS011;31495;42.740;22.908;2023-06-10T03:59:05;5.93;;;4.15;;
45792;SDS011;31495;42.740;22.908;2023-06-10T04:00:05;9.13;;;4.13;;
45792;SDS011;31495;42.740;22.908;2023-06-10T04:01:11;5.40;;;3.28;;
45792;SDS011;31495;42.740;22.908;2023-06-10T04:02:12;5.15;;;3.58;;
45792;SDS011;31495;42.740;22.908;2023-06-10T04:03:11;7.45;;;3.75;;
45792;SDS011;31495;42.740;22.908;2023-06-10T04:04:14;6.05;;;3.83;;
45792;SDS011;31495;42.740;22.908;2023-06-10T04:05:17;6.35;;;3.90;;
45792;SDS011;31495;42.740;22.908;2023-06-10T04:06:17;9.55;;;4.78;;
45792;SDS011;31495;42.740;22.908;2023-06-10T04:07:17;9.80;;;4.55;;
45792;SDS011;31495;42.740;22.908;2023-06-10T04:08:19;7.30;;;4.22;;
45792;SDS011;31495;42.740;22.908;2023-06-10T04:09:19;7.32;;;3.85;;
45792;SDS011;31495;42.740;22.908;2023-06-10T04:10:19;7.65;;;3.92;;
45792;SDS011;31495;42.740;22.908;2023-06-10T04:11:18;9.02;;;3.60;;
45792;SDS011;31495;42.740;22.908;2023-06-10T04:12:17;4.00;;;2.90;;
45792;SDS011;31495;42.740;22.908;2023-06-10T04:13:17;6.45;;;3.75;;
45792;SDS011;31495;42.740;22.908;2023-06-10T04:14:18;8.13;;;4.32;;
45792;SDS011;31495;42.740;22.908;2023-06-10T04:15:18;7.38;;;4.47;;
45792;SDS011;31495;42.740;22.908;2023-06-10T04:16:17;5.50;;;3.97;;
45792;SDS011;31495;42.740;22.908;2023-06-10T04:17:17;4.80;;;4.07;;
45792;SDS011;31495;42.740;22.908;2023-06-10T04:18:16;7.30;;;4.40;;
45792;SDS011;31495;42.740;22.908;2023-06-10T04:19:16;6.82;;;3.88;;
45792;SDS011;31495;42.740;22.908;2023-06-10T04:20:15;5.88;;;3.75;;
45792;SDS011;31495;42.740;22.908;2023-06-10T04:21:15;5.63;;;4.00;;
45792;SDS011;31495;42.740;22.908;2023-06-10T04:22:14;4.97;;;3.50;;
45792;SDS011;31495;42.740;22.908;2023-06-10T04:23:14;5.78;;;3.67;;
45792;SDS011;31495;42.740;22.908;2023-06-10T04:24:14;5.80;;;3.30;;
45792;SDS011;31495;42.740;22.908;2023-06-10T04:25:13;5.93;;;3.22;;
45792;SDS011;31495;42.740;22.908;2023-06-10T04:26:13;4.68;;;3.85;;
45792;SDS011;31495;42.740;22.908;2023-06-10T04:27:13;10.40;;;3.83;;
45792;SDS011;31495;42.740;22.908;2023-06-10T04:28:12;7.50;;;4.45;;
45792;SDS011;31495;42.740;22.908;2023-06-10T04:29:12;5.10;;;3.80;;
45792;SDS011;31495;42.740;22.908;2023-06-10T04:30:11;6.88;;;3.97;;
45792;SDS011;31495;42.740;22.908;2023-06-10T04:31:12;5.45;;;3.63;;
45792;SDS011;31495;42.740;22.908;2023-06-10T04:32:11;6.90;;;4.30;;
45792;SDS011;31495;42.740;22.908;2023-06-10T04:33:10;7.28;;;3.88;;
45792;SDS011;31495;42.740;22.908;2023-06-10T04:34:10;8.40;;;4.22;;
45792;SDS011;31495;42.740;22.908;2023-06-10T04:35:12;6.38;;;3.78;;
45792;SDS011;31495;42.740;22.908;2023-06-10T04:36:15;5.22;;;4.32;;
45792;SDS011;31495;42.740;22.908;2023-06-10T04:37:15;5.18;;;3.95;;
45792;SDS011;31495;42.740;22.908;2023-06-10T04:38:14;8.15;;;4.30;;
45792;SDS011;31495;42.740;22.908;2023-06-10T04:39:14;5.07;;;4.05;;
45792;SDS011;31495;42.740;22.908;2023-06-10T04:40:15;5.07;;;4.00;;
45792;SDS011;31495;42.740;22.908;2023-06-10T04:41:15;12.52;;;4.85;;
45792;SDS011;31495;42.740;22.908;2023-06-10T04:42:14;6.13;;;4.82;;
45792;SDS011;31495;42.740;22.908;2023-06-10T04:43:14;6.55;;;4.75;;
45792;SDS011;31495;42.740;22.908;2023-06-10T04:44:13;7.93;;;5.25;;
45792;SDS011;31495;42.740;22.908;2023-06-10T04:45:12;8.20;;;4.43;;
45792;SDS011;31495;42.740;22.908;2023-06-10T04:46:12;6.28;;;4.20;;
45792;SDS011;31495;42.740;22.908;2023-06-10T04:47:12;6.43;;;4.47;;
45792;SDS011;31495;42.740;22.908;2023-06-10T04:48:12;6.55;;;4.13;;
45792;SDS011;31495;42.740;22.908;2023-06-10T04:49:12;5.43;;;4.00;;
45792;SDS011;31495;42.740;22.908;2023-06-10T04:50:13;5.28;;;4.10;;
45792;SDS011;31495;42.740;22.908;2023-06-10T04:51:12;6.72;;;3.63;;
45792;SDS011;31495;42.740;22.908;2023-06-10T04:52:13;6.63;;;4.07;;
45792;SDS011;31495;42.740;22.908;2023-06-10T04:53:12;5.85;;;3.83;;
45792;SDS011;31495;42.740;22.908;2023-06-10T04:54:12;6.90;;;3.47;;
45792;SDS011;31495;42.740;22.908;2023-06-10T04:55:11;4.80;;;3.60;;
45792;SDS011;31495;42.740;22.908;2023-06-10T04:56:11;6.05;;;3.65;;
45792;SDS011;31495;42.740;22.908;2023-06-10T04:57:10;7.13;;;4.20;;
45792;SDS011;31495;42.740;22.908;2023-06-10T04:58:10;6.75;;;3.55;;
45792;SDS011;31495;42.740;22.908;2023-06-10T04:59:09;13.02;;;4.35;;
45792;SDS011;31495;42.740;22.908;2023-06-10T05:00:09;5.75;;;3.28;;
45792;SDS011;31495;42.740;22.908;2023-06-10T05:01:09;4.57;;;3.60;;
45792;SDS011;31495;42.740;22.908;2023-06-10T05:02:08;7.22;;;4.20;;
45792;SDS011;31495;42.740;22.908;2023-06-10T05:03:08;5.72;;;3.17;;
45792;SDS011;31495;42.740;22.908;2023-06-10T05:04:07;8.40;;;4.50;;
45792;SDS011;31495;42.740;22.908;2023-06-10T05:05:07;6.32;;;3.72;;
45792;SDS011;31495;42.740;22.908;2023-06-10T05:06:07;6.32;;;3.83;;
45792;SDS011;31495;42.740;22.908;2023-06-10T05:07:07;6.93;;;3.78;;
45792;SDS011;31495;42.740;22.908;2023-06-10T05:08:06;8.00;;;3.97;;
45792;SDS011;31495;42.740;22.908;2023-06-10T05:09:05;5.45;;;4.05;;
45792;SDS011;31495;42.740;22.908;2023-06-10T05:10:05;5.97;;;4.40;;
45792;SDS011;31495;42.740;22.908;2023-06-10T05:11:05;8.35;;;4.32;;
45792;SDS011;31495;42.740;22.908;2023-06-10T05:12:05;8.52;;;4.05;;
45792;SDS011;31495;42.740;22.908;2023-06-10T05:13:06;6.75;;;3.97;;
45792;SDS011;31495;42.740;22.908;2023-06-10T05:14:05;4.70;;;3.42;;
45792;SDS011;31495;42.740;22.908;2023-06-10T05:15:05;6.25;;;3.90;;
45792;SDS011;31495;42.740;22.908;2023-06-10T05:16:06;5.57;;;4.15;;
45792;SDS011;31495;42.740;22.908;2023-06-10T05:17:06;12.52;;;4.55;;
45792;SDS011;31495;42.740;22.908;2023-06-10T05:18:06;6.70;;;4.60;;
45792;SDS011;31495;42.740;22.908;2023-06-10T05:19:05;5.07;;;3.78;;
45792;SDS011;31495;42.740;22.908;2023-06-10T05:20:05;7.50;;;4.55;;
45792;SDS011;31495;42.740;22.908;2023-06-10T05:21:05;5.15;;;3.88;;
45792;SDS011;31495;42.740;22.908;2023-06-10T05:22:05;5.13;;;3.55;;
45792;SDS011;31495;42.740;22.908;2023-06-10T05:23:04;4.55;;;3.55;;
45792;SDS011;31495;42.740;22.908;2023-06-10T05:24:04;5.38;;;4.20;;
45792;SDS011;31495;42.740;22.908;2023-06-10T05:25:04;6.18;;;4.45;;
45792;SDS011;31495;42.740;22.908;2023-06-10T05:26:05;6.78;;;4.82;;
45792;SDS011;31495;42.740;22.908;2023-06-10T05:27:04;7.32;;;4.28;;
45792;SDS011;31495;42.740;22.908;2023-06-10T05:28:05;6.25;;;4.80;;
45792;SDS011;31495;42.740;22.908;2023-06-10T05:29:08;5.85;;;4.25;;
45792;SDS011;31495;42.740;22.908;2023-06-10T05:30:11;6.75;;;4.97;;
45792;SDS011;31495;42.740;22.908;2023-06-10T05:31:11;10.65;;;4.57;;
45792;SDS011;31495;42.740;22.908;2023-06-10T05:32:11;6.95;;;3.67;;
45792;SDS011;31495;42.740;22.908;2023-06-10T05:33:10;7.10;;;3.25;;
45792;SDS011;31495;42.740;22.908;2023-06-10T05:34:10;6.32;;;3.63;;
45792;SDS011;31495;42.740;22.908;2023-06-10T05:35:10;5.20;;;3.83;;
45792;SDS011;31495;42.740;22.908;2023-06-10T05:36:09;5.95;;;3.80;;
45792;SDS011;31495;42.740;22.908;2023-06-10T05:37:08;4.90;;;3.65;;
45792;SDS011;31495;42.740;22.908;2023-06-10T05:38:08;4.57;;;3.50;;
45792;SDS011;31495;42.740;22.908;2023-06-10T05:39:09;7.18;;;3.95;;
45792;SDS011;31495;42.740;22.908;2023-06-10T05:40:09;5.28;;;3.58;;
45792;SDS011;31495;42.740;22.908;2023-06-10T05:41:08;5.88;;;3.70;;
45792;SDS011;31495;42.740;22.908;2023-06-10T05:42:08;5.55;;;3.60;;
45792;SDS011;31495;42.740;22.908;2023-06-10T05:43:08;5.00;;;3.95;;
45792;SDS011;31495;42.740;22.908;2023-06-10T05:44:08;6.35;;;4.35;;
45792;SDS011;31495;42.740;22.908;2023-06-10T05:45:08;5.25;;;3.65;;
45792;SDS011;31495;42.740;22.908;2023-06-10T05:46:08;7.70;;;4.15;;
45792;SDS011;31495;42.740;22.908;2023-06-10T05:47:08;5.50;;;4.15;;
45792;SDS011;31495;42.740;22.908;2023-06-10T05:48:08;5.18;;;4.00;;
45792;SDS011;31495;42.740;22.908;2023-06-10T05:49:07;5.55;;;3.97;;
45792;SDS011;31495;42.740;22.908;2023-06-10T05:50:07;7.22;;;3.95;;
45792;SDS011;31495;42.740;22.908;2023-06-10T05:51:07;4.85;;;3.95;;
45792;SDS011;31495;42.740;22.908;2023-06-10T05:52:07;5.00;;;4.00;;
45792;SDS011;31495;42.740;22.908;2023-06-10T05:53:06;6.07;;;4.05;;
45792;SDS011;31495;42.740;22.908;2023-06-10T05:54:07;6.88;;;3.88;;
45792;SDS011;31495;42.740;22.908;2023-06-10T05:55:06;7.45;;;3.78;;
45792;SDS011;31495;42.740;22.908;2023-06-10T05:56:06;9.43;;;4.75;;
45792;SDS011;31495;42.740;22.908;2023-06-10T05:57:06;8.43;;;4.07;;
45792;SDS011;31495;42.740;22.908;2023-06-10T05:58:06;7.25;;;4.20;;
45792;SDS011;31495;42.740;22.908;2023-06-10T05:59:05;6.72;;;4.15;;
45792;SDS011;31495;42.740;22.908;2023-06-10T06:00:04;6.30;;;4.18;;
45792;SDS011;31495;42.740;22.908;2023-06-10T06:01:04;5.30;;;3.88;;
45792;SDS011;31495;42.740;22.908;2023-06-10T06:02:04;5.43;;;4.00;;